createdAt,value
2022-12-23T00:00:35.233Z,4.28
2022-12-23T00:03:15.371Z,4.32
2022-12-23T00:06:02.207Z,4.65
2022-12-23T00:08:56.227Z,4.75
2022-12-23T00:11:43.197Z,5.55
2022-12-23T00:14:42.238Z,5.05
2022-12-23T00:17:29.253Z,5.85
2022-12-23T00:20:17.223Z,5.80
2022-12-23T00:23:13.218Z,5.57
2022-12-23T00:26:00.228Z,5.05
2022-12-23T00:28:47.244Z,5.53
2022-12-23T00:31:27.365Z,5.53
2022-12-23T00:34:14.231Z,5.32
2022-12-23T00:36:54.567Z,5.25
2022-12-23T00:40:06.272Z,5.78
2022-12-23T00:43:02.219Z,5.45
2022-12-23T00:45:49.263Z,5.25
2022-12-23T00:48:54.206Z,4.63
2022-12-23T00:51:41.205Z,5.30
2022-12-23T00:54:21.264Z,4.55
2022-12-23T00:57:08.211Z,4.57
2022-12-23T00:59:55.230Z,4.10
2022-12-23T01:03:01.274Z,3.75
2022-12-23T01:05:42.322Z,4.32
2022-12-23T01:11:23.217Z,4.15
2022-12-23T01:14:05.311Z,3.88
2022-12-23T01:16:52.352Z,3.53
2022-12-23T01:19:32.286Z,3.85
2022-12-23T01:22:19.221Z,3.22
2022-12-23T01:24:59.347Z,4.00
2022-12-23T01:27:46.235Z,3.72
2022-12-23T01:30:26.292Z,4.35
2022-12-23T01:33:13.222Z,4.70
2022-12-23T01:35:54.295Z,4.50
2022-12-23T01:41:59.237Z,3.78
2022-12-23T01:44:59.197Z,4.07
2022-12-23T01:47:47.208Z,4.38
2022-12-23T01:50:51.325Z,4.35
2022-12-23T01:53:44.242Z,3.88
2022-12-23T01:56:44.217Z,4.30
2022-12-23T01:59:43.083Z,5.00
2022-12-23T02:02:49.314Z,4.65
2022-12-23T02:05:37.226Z,4.03
2022-12-23T02:08:44.119Z,4.82
2022-12-23T02:11:43.229Z,4.70
2022-12-23T02:14:42.534Z,4.35
2022-12-23T02:17:50.226Z,4.68
2022-12-23T02:20:30.887Z,4.60
2022-12-23T02:23:38.246Z,4.78
2022-12-23T02:26:31.546Z,4.90
2022-12-23T02:29:49.206Z,4.82
2022-12-23T02:32:38.794Z,4.10
2022-12-23T02:36:02.202Z,4.00
2022-12-23T02:39:14.104Z,4.85
2022-12-23T02:42:12.213Z,3.95
2022-12-23T02:45:08.241Z,4.40
2022-12-23T02:47:57.269Z,4.25
2022-12-23T02:50:47.235Z,5.47
2022-12-23T02:53:35.339Z,4.18
2022-12-23T02:56:25.245Z,4.60
2022-12-23T02:59:11.292Z,5.13
2022-12-23T03:02:00.372Z,5.47
2022-12-23T03:04:48.237Z,4.70
2022-12-23T03:07:44.232Z,4.95
2022-12-23T03:10:52.313Z,4.80
2022-12-23T03:14:33.219Z,5.25
2022-12-23T03:17:39.306Z,4.90
2022-12-23T03:20:56.222Z,4.93
2022-12-23T03:23:50.406Z,5.18
2022-12-23T03:26:51.273Z,5.38
2022-12-23T03:29:42.237Z,5.45
2022-12-23T03:32:24.620Z,5.57
2022-12-23T03:35:14.291Z,5.07
2022-12-23T03:38:02.286Z,5.15
2022-12-23T03:40:54.220Z,5.18
2022-12-23T03:43:55.220Z,6.05
2022-12-23T03:46:50.304Z,5.93
2022-12-23T03:49:43.231Z,5.85
2022-12-23T03:52:54.276Z,6.30
2022-12-23T03:55:52.297Z,5.55
2022-12-23T03:59:12.223Z,6.38
2022-12-23T04:02:23.464Z,5.50
2022-12-23T04:05:25.252Z,5.20
2022-12-23T04:08:40.226Z,5.50
2022-12-23T04:11:27.222Z,5.90
2022-12-23T04:14:07.303Z,5.68
2022-12-23T04:16:55.228Z,5.47
2022-12-23T04:19:35.282Z,5.55
2022-12-23T04:22:23.234Z,5.60
2022-12-23T04:25:10.219Z,5.25
2022-12-23T04:27:57.293Z,5.78
2022-12-23T04:30:37.221Z,5.22
2022-12-23T04:33:24.220Z,5.72
2022-12-23T04:36:06.301Z,5.50
2022-12-23T04:38:53.217Z,5.55
2022-12-23T04:41:33.343Z,4.78
2022-12-23T04:44:20.233Z,4.70
2022-12-23T04:47:07.296Z,4.68
2022-12-23T04:49:47.721Z,4.50
2022-12-23T04:52:34.232Z,4.50
2022-12-23T04:55:21.352Z,4.80
2022-12-23T04:58:01.228Z,4.75
2022-12-23T05:00:41.786Z,4.95
2022-12-23T05:03:28.281Z,5.30
2022-12-23T05:06:08.796Z,4.78
2022-12-23T05:08:55.267Z,4.80
2022-12-23T05:11:42.667Z,4.72
2022-12-23T05:14:22.267Z,5.20
2022-12-23T05:17:07.473Z,4.82
2022-12-23T05:19:54.250Z,5.20
2022-12-23T05:22:34.727Z,4.20
2022-12-23T05:25:22.209Z,4.97
2022-12-23T05:28:03.668Z,4.90
2022-12-23T05:33:38.309Z,5.15
2022-12-23T05:36:19.282Z,5.47
2022-12-23T05:41:53.236Z,7.55
2022-12-23T05:44:40.286Z,8.45
2022-12-23T05:47:20.240Z,8.88
2022-12-23T05:50:00.913Z,8.45
2022-12-23T05:52:47.272Z,9.13
2022-12-23T05:55:28.785Z,9.43
2022-12-23T05:58:16.269Z,9.43
2022-12-23T06:01:03.238Z,9.88
2022-12-23T06:03:50.300Z,9.73
2022-12-23T06:06:30.738Z,9.23
2022-12-23T06:09:17.236Z,10.27
2022-12-23T06:11:58.028Z,10.07
2022-12-23T06:14:44.244Z,10.27
2022-12-23T06:17:24.770Z,10.48
2022-12-23T06:20:17.955Z,11.45
2022-12-23T06:23:07.291Z,11.20
2022-12-23T06:25:47.221Z,11.15
2022-12-23T06:28:35.281Z,11.57
2022-12-23T06:31:15.353Z,10.18
2022-12-23T06:34:02.299Z,10.32
2022-12-23T06:36:42.226Z,10.43
2022-12-23T06:39:23.766Z,9.32
2022-12-23T06:44:51.199Z,9.25
2022-12-23T06:50:25.258Z,8.70
2022-12-23T06:53:05.304Z,10.00
2022-12-23T06:55:52.234Z,7.55
2022-12-23T06:58:32.301Z,6.65
2022-12-23T07:01:19.297Z,6.30
2022-12-23T07:03:59.291Z,5.65
2022-12-23T07:06:46.230Z,6.63
2022-12-23T07:09:33.288Z,5.28
2022-12-23T07:12:13.234Z,4.70
2022-12-23T07:15:00.223Z,5.07
2022-12-23T07:17:47.248Z,4.50
2022-12-23T07:20:34.265Z,4.25
2022-12-23T07:23:14.457Z,4.57
2022-12-23T07:25:55.781Z,4.28
2022-12-23T07:31:29.396Z,4.30
2022-12-23T07:34:09.255Z,4.05
2022-12-23T07:36:49.731Z,4.00
2022-12-23T07:39:36.246Z,3.83
2022-12-23T07:42:43.605Z,3.90
2022-12-23T07:45:24.223Z,4.10
2022-12-23T07:48:04.839Z,3.95
2022-12-23T07:50:51.254Z,3.80
2022-12-23T07:53:31.819Z,3.72
2022-12-23T07:56:19.263Z,3.70
2022-12-23T07:59:06.253Z,4.30
2022-12-23T08:01:46.501Z,3.85
2022-12-23T08:04:33.296Z,4.20
2022-12-23T08:07:13.451Z,4.38
2022-12-23T08:10:00.237Z,4.03
2022-12-23T08:12:40.353Z,4.38
2022-12-23T08:15:27.242Z,4.45
2022-12-23T08:18:07.285Z,4.45
2022-12-23T08:21:09.223Z,4.72
2022-12-23T08:23:49.365Z,5.13
2022-12-23T08:26:36.234Z,4.85
2022-12-23T08:29:16.355Z,5.03
2022-12-23T08:32:03.240Z,5.13
2022-12-23T08:34:43.291Z,4.82
2022-12-23T08:37:30.239Z,5.18
2022-12-23T08:40:10.312Z,5.93
2022-12-23T08:42:57.253Z,5.38
2022-12-23T08:45:38.333Z,4.82
2022-12-23T08:51:13.304Z,5.75
2022-12-23T08:54:05.245Z,5.57
2022-12-23T08:56:49.303Z,5.32
2022-12-23T08:59:36.237Z,5.82
2022-12-23T09:02:18.502Z,5.93
2022-12-23T09:05:05.223Z,6.45
2022-12-23T09:07:45.294Z,5.95
2022-12-23T09:10:33.255Z,6.82
2022-12-23T09:13:19.900Z,7.20
2022-12-23T09:16:10.310Z,6.45
2022-12-23T09:18:50.297Z,6.43
2022-12-23T09:21:37.246Z,6.20
2022-12-23T09:24:17.340Z,6.63
2022-12-23T09:27:04.258Z,5.85
2022-12-23T09:29:44.296Z,6.10
2022-12-23T09:32:31.218Z,6.50
2022-12-23T09:35:18.230Z,6.72
2022-12-23T09:38:05.272Z,6.95
2022-12-23T09:40:47.235Z,7.65
2022-12-23T09:44:19.245Z,7.10
2022-12-23T09:47:10.252Z,7.10
2022-12-23T09:50:10.577Z,7.40
2022-12-23T09:53:14.249Z,7.47
2022-12-23T09:56:06.256Z,7.10
2022-12-23T09:59:24.382Z,7.78
2022-12-23T10:02:35.446Z,7.72
2022-12-23T10:05:46.248Z,7.00
2022-12-23T10:08:46.236Z,7.97
2022-12-23T10:11:42.224Z,7.43
2022-12-23T10:14:35.302Z,7.93
2022-12-23T10:17:35.238Z,7.72
2022-12-23T10:20:23.572Z,7.68
2022-12-23T10:23:13.243Z,8.02
2022-12-23T10:25:57.339Z,6.65
2022-12-23T10:28:44.260Z,7.88
2022-12-23T10:31:40.441Z,6.95
2022-12-23T10:34:50.241Z,6.70
2022-12-23T10:37:46.239Z,6.78
2022-12-23T10:40:36.097Z,7.22
2022-12-23T10:43:42.229Z,6.47
2022-12-23T10:47:03.370Z,6.55
2022-12-23T10:50:11.243Z,5.97
2022-12-23T10:53:00.311Z,6.38
2022-12-23T10:55:45.257Z,5.88
2022-12-23T10:58:33.387Z,6.22
2022-12-23T11:01:22.027Z,6.72
2022-12-23T11:04:22.321Z,7.10
2022-12-23T11:07:41.623Z,5.88
2022-12-23T11:10:26.231Z,6.18
2022-12-23T11:13:13.280Z,6.32
2022-12-23T11:15:53.256Z,5.97
2022-12-23T11:18:38.798Z,6.38
2022-12-23T11:21:28.239Z,6.25
2022-12-23T11:27:12.228Z,6.65
2022-12-23T11:30:01.321Z,6.72
2022-12-23T11:32:41.245Z,7.07
2022-12-23T11:35:33.286Z,6.85
2022-12-23T11:38:27.242Z,7.28
2022-12-23T11:41:08.143Z,6.97
2022-12-23T11:43:55.262Z,8.75
2022-12-23T11:49:31.264Z,6.97
2022-12-23T11:52:14.801Z,8.05
2022-12-23T11:55:10.237Z,8.80
2022-12-23T11:57:59.259Z,9.10
2022-12-23T12:00:55.871Z,9.57
2022-12-23T12:03:55.371Z,9.55
2022-12-23T12:06:37.321Z,10.52
2022-12-23T12:09:32.316Z,10.70
2022-12-23T12:12:23.255Z,10.40
2022-12-23T12:15:05.297Z,9.88
2022-12-23T12:17:56.256Z,10.45
2022-12-23T12:20:43.362Z,11.63
2022-12-23T12:23:33.258Z,11.63
2022-12-23T12:26:26.237Z,11.70
2022-12-23T12:29:32.257Z,11.48
2022-12-23T12:32:28.240Z,11.43
2022-12-23T12:35:43.395Z,11.23
2022-12-23T12:38:38.253Z,11.57
2022-12-23T12:41:32.235Z,10.65
2022-12-23T12:44:46.270Z,10.60
2022-12-23T12:48:02.154Z,10.43
2022-12-23T12:51:27.561Z,11.48
2022-12-23T12:54:39.227Z,10.20
2022-12-23T12:57:22.260Z,10.43
2022-12-23T13:00:12.232Z,9.90
2022-12-23T13:03:25.308Z,11.25
2022-12-23T13:06:24.263Z,10.55
2022-12-23T13:09:48.257Z,9.45
2022-12-23T13:12:53.302Z,9.38
2022-12-23T13:16:08.261Z,10.13
2022-12-23T13:19:00.251Z,10.18
2022-12-23T13:21:58.264Z,9.18
2022-12-23T13:25:10.249Z,9.57
2022-12-23T13:28:19.423Z,9.98
2022-12-23T13:31:32.305Z,8.98
2022-12-23T13:34:41.095Z,9.63
2022-12-23T13:37:51.245Z,9.68
2022-12-23T13:40:50.317Z,9.45
2022-12-23T13:43:46.245Z,9.63
2022-12-23T13:46:58.261Z,8.73
2022-12-23T13:50:06.438Z,9.20
2022-12-23T13:53:31.292Z,9.05
2022-12-23T13:56:51.321Z,8.65
2022-12-23T13:59:50.253Z,8.40
2022-12-23T14:02:42.698Z,8.90
2022-12-23T14:05:43.220Z,8.95
2022-12-23T14:08:33.269Z,8.85
2022-12-23T14:11:26.307Z,8.15
2022-12-23T14:14:09.261Z,8.68
2022-12-23T14:17:16.270Z,8.70
2022-12-23T14:20:39.279Z,8.20
2022-12-23T14:24:02.448Z,8.10
2022-12-23T14:26:57.272Z,8.75
2022-12-23T14:29:44.240Z,8.13
2022-12-23T14:32:28.049Z,8.05
2022-12-23T14:35:42.420Z,7.65
2022-12-23T14:38:38.301Z,8.68
2022-12-23T14:41:47.255Z,8.65
2022-12-23T14:44:36.589Z,8.00
2022-12-23T14:47:44.253Z,7.55
2022-12-23T14:50:44.323Z,8.23
2022-12-23T14:53:39.261Z,8.13
2022-12-23T14:56:19.686Z,7.40
2022-12-23T14:59:09.275Z,7.78
2022-12-23T15:02:00.436Z,7.53
2022-12-23T15:04:51.243Z,7.15
2022-12-23T15:07:35.337Z,7.70
2022-12-23T15:10:32.247Z,7.22
2022-12-23T15:13:16.522Z,7.20
2022-12-23T15:16:08.289Z,7.38
2022-12-23T15:19:02.276Z,7.25
2022-12-23T15:21:54.499Z,7.13
2022-12-23T15:24:48.383Z,6.53
2022-12-23T15:27:29.786Z,6.57
2022-12-23T15:30:20.240Z,7.20
2022-12-23T15:33:16.117Z,6.45
2022-12-23T15:36:14.249Z,6.68
2022-12-23T15:38:54.422Z,6.53
2022-12-23T15:41:52.455Z,6.32
2022-12-23T15:44:49.261Z,6.05
2022-12-23T15:47:38.698Z,6.80
2022-12-23T15:50:33.270Z,5.78
2022-12-23T15:53:23.305Z,6.10
2022-12-23T15:56:03.253Z,6.10
2022-12-23T15:58:44.048Z,5.85
2022-12-23T16:01:33.346Z,6.03
2022-12-23T16:04:28.352Z,6.20
2022-12-23T16:07:09.317Z,6.53
2022-12-23T16:12:40.308Z,5.95
2022-12-23T16:18:33.969Z,6.03
2022-12-23T16:21:21.260Z,6.10
2022-12-23T16:24:08.271Z,6.28
2022-12-23T16:26:48.796Z,6.28
2022-12-23T16:29:35.283Z,6.53
2022-12-23T16:32:18.459Z,6.55
2022-12-23T16:35:05.252Z,6.32
2022-12-23T16:37:52.314Z,6.30
2022-12-23T16:43:19.277Z,6.90
2022-12-23T16:46:09.293Z,6.95
2022-12-23T16:49:05.002Z,6.40
2022-12-23T16:51:46.264Z,6.70
2022-12-23T16:57:13.483Z,6.38
2022-12-23T16:59:53.722Z,6.90
2022-12-23T17:02:42.361Z,5.95
2022-12-23T17:05:23.792Z,6.47
2022-12-23T17:08:10.256Z,6.28
2022-12-23T17:11:04.350Z,6.00
2022-12-23T17:13:51.549Z,6.13
2022-12-23T17:16:34.458Z,6.15
2022-12-23T17:19:28.047Z,6.13
2022-12-23T17:22:17.371Z,6.75
2022-12-23T17:24:57.835Z,7.05
2022-12-23T17:27:44.302Z,6.15
2022-12-23T17:30:32.531Z,5.78
2022-12-23T17:33:13.627Z,6.10
2022-12-23T17:36:02.292Z,5.80
2022-12-23T17:38:42.531Z,5.53
2022-12-23T17:41:32.269Z,5.90
2022-12-23T17:44:13.589Z,5.47
2022-12-23T17:47:00.265Z,6.10
2022-12-23T17:49:47.471Z,5.55
2022-12-23T17:52:34.253Z,5.38
2022-12-23T17:55:29.358Z,6.22
2022-12-23T17:58:17.271Z,6.20
2022-12-23T18:00:57.359Z,6.15
2022-12-23T18:03:44.267Z,6.00
2022-12-23T18:06:26.561Z,6.43
2022-12-23T18:09:20.267Z,5.95
2022-12-23T18:12:07.352Z,5.88
2022-12-23T18:14:47.282Z,5.15
2022-12-23T18:17:27.915Z,5.25
2022-12-23T18:20:14.292Z,5.65
2022-12-23T18:22:55.405Z,4.78
2022-12-23T18:25:42.254Z,4.85
2022-12-23T18:28:23.440Z,4.65
2022-12-23T18:31:11.616Z,4.10
2022-12-23T18:33:58.319Z,4.38
2022-12-23T18:36:39.815Z,3.70
2022-12-23T18:39:26.268Z,3.95
2022-12-23T18:42:13.272Z,3.88
2022-12-23T18:47:40.294Z,3.97
2022-12-23T18:50:28.330Z,3.90
2022-12-23T18:53:09.541Z,4.22
2022-12-23T18:55:57.360Z,4.30
2022-12-23T18:58:38.324Z,4.90
2022-12-23T19:01:26.426Z,4.10
2022-12-23T19:04:13.264Z,4.15
2022-12-23T19:06:56.087Z,4.40
2022-12-23T19:09:42.351Z,4.30
2022-12-23T19:12:29.611Z,4.88
2022-12-23T19:17:57.557Z,4.57
2022-12-23T19:20:45.481Z,4.30
2022-12-23T19:23:33.263Z,3.95
2022-12-23T19:26:15.435Z,4.63
2022-12-23T19:29:02.270Z,4.10
2022-12-23T19:31:42.304Z,3.97
2022-12-23T19:34:29.268Z,4.93
2022-12-23T19:37:16.248Z,5.32
2022-12-23T19:40:10.290Z,4.78
2022-12-23T19:42:57.273Z,4.78
2022-12-23T19:45:37.823Z,5.30
2022-12-23T19:48:24.279Z,4.47
2022-12-23T19:51:13.633Z,4.95
2022-12-23T19:54:01.273Z,5.53
2022-12-23T19:56:41.881Z,4.60
2022-12-23T19:59:28.284Z,4.97
2022-12-23T20:02:15.647Z,5.18
2022-12-23T20:05:02.577Z,4.32
2022-12-23T20:10:29.262Z,4.97
2022-12-23T20:16:03.328Z,4.60
2022-12-23T20:21:30.692Z,4.43
2022-12-23T20:24:11.399Z,3.97
2022-12-23T20:26:58.270Z,4.68
2022-12-23T20:29:45.715Z,4.70
2022-12-23T20:32:33.714Z,4.10
2022-12-23T20:35:14.413Z,5.07
2022-12-23T20:40:41.965Z,4.78
2022-12-23T20:43:28.293Z,4.53
2022-12-23T20:46:12.429Z,4.05
2022-12-23T20:48:59.276Z,3.97
2022-12-23T20:51:39.342Z,4.28
2022-12-23T20:54:31.992Z,3.70
2022-12-23T20:57:12.452Z,3.40
2022-12-23T20:59:59.293Z,3.75
2022-12-23T21:02:40.674Z,4.53
2022-12-23T21:05:27.327Z,3.40
2022-12-23T21:11:00.292Z,3.50
2022-12-23T21:13:40.540Z,3.40
2022-12-23T21:16:27.320Z,2.90
2022-12-23T21:19:14.274Z,3.03
2022-12-23T21:22:01.262Z,2.97
2022-12-23T21:24:48.284Z,2.97
2022-12-23T21:30:17.283Z,3.30
2022-12-23T21:33:04.330Z,2.83
2022-12-23T21:35:44.299Z,3.35
2022-12-23T21:38:24.774Z,2.30
2022-12-23T21:41:16.291Z,2.40
2022-12-23T21:43:58.316Z,2.50
2022-12-23T21:46:45.300Z,2.47
2022-12-23T21:49:25.773Z,3.00
2022-12-23T21:52:12.274Z,2.53
2022-12-23T21:54:52.738Z,1.95
2022-12-23T21:57:39.321Z,2.38
2022-12-23T22:00:19.897Z,2.65
2022-12-23T22:03:07.293Z,2.58
2022-12-23T22:05:54.396Z,2.35
2022-12-23T22:08:34.304Z,3.03
2022-12-23T22:11:27.272Z,2.20
2022-12-23T22:14:16.265Z,2.45
2022-12-23T22:16:56.848Z,2.65
2022-12-23T22:19:43.277Z,2.47
2022-12-23T22:22:23.757Z,2.30
2022-12-23T22:25:10.285Z,2.70
2022-12-23T22:27:57.288Z,2.38
2022-12-23T22:30:37.338Z,2.30
2022-12-23T22:33:24.268Z,2.60
2022-12-23T22:36:04.363Z,2.55
2022-12-23T22:38:57.282Z,2.08
2022-12-23T22:41:44.287Z,3.10
2022-12-23T22:44:24.774Z,2.30
2022-12-23T22:47:11.296Z,2.88
2022-12-23T22:49:58.304Z,2.40
2022-12-23T22:52:45.310Z,2.17
2022-12-23T22:55:32.359Z,2.20
2022-12-23T22:58:12.277Z,2.30
2022-12-23T23:01:14.277Z,2.35
2022-12-23T23:04:06.289Z,2.75
2022-12-23T23:06:54.284Z,2.35
2022-12-23T23:09:48.293Z,2.50
2022-12-23T23:12:28.746Z,2.30
2022-12-23T23:15:15.289Z,3.15
2022-12-23T23:18:02.283Z,3.60
2022-12-23T23:20:49.306Z,3.15
2022-12-23T23:23:37.340Z,2.65
2022-12-23T23:26:18.323Z,2.47
2022-12-23T23:31:45.430Z,2.47
2022-12-23T23:34:32.277Z,2.45
2022-12-23T23:37:19.324Z,2.95
2022-12-23T23:39:59.297Z,2.78
2022-12-23T23:42:46.274Z,2.90
2022-12-23T23:45:27.453Z,2.63
2022-12-23T23:51:02.303Z,2.95
2022-12-23T23:53:42.809Z,2.50
2022-12-23T23:56:35.877Z,2.90
2022-12-23T23:59:17.781Z,3.28
